Time;durP1;ratioP1;P1;durP2;ratioP2;P2;SDS_P1;SDS_P2;PMS_P1;PMS_P2;Temp;Humidity;BMP_temperature;BMP_pressure;BME280_temperature;BME280_humidity;BME280_pressure;Samples;Min_cycle;Max_cycle;Signal;HPM_P1;HPM_P2
2022/02/24 00:00:41;;;;;;;7.03;2.83;;;;;;;;;;6162851;23;20504;-88
2022/02/24 00:03:45;;;;;;;9.40;2.67;;;;;;;;;;6192728;23;20584;-87
2022/02/24 00:07:16;;;;;;;3.43;2.20;;;;;;;;;;6202543;23;20556;-87
2022/02/24 00:10:20;;;;;;;5.97;2.30;;;;;;;;;;6161290;23;20500;-86
2022/02/24 00:13:35;;;;;;;4.03;2.27;;;;;;;;;;6210992;23;20583;-86
2022/02/24 00:16:44;;;;;;;5.27;2.50;;;;;;;;;;6165574;23;21112;-87
2022/02/24 00:19:49;;;;;;;9.07;2.60;;;;;;;;;;6195077;23;21052;-87
2022/02/24 00:22:57;;;;;;;4.77;2.90;;;;;;;;;;6195567;23;20504;-88
2022/02/24 00:26:06;;;;;;;9.07;2.30;;;;;;;;;;6195136;23;21052;-88
2022/02/24 00:29:10;;;;;;;9.33;3.10;;;;;;;;;;6178289;23;21037;-86
2022/02/24 00:32:40;;;;;;;7.43;2.27;;;;;;;;;;6151175;23;20560;-88
2022/02/24 00:36:02;;;;;;;6.07;2.47;;;;;;;;;;6210157;23;20561;-87
2022/02/24 00:39:07;;;;;;;5.20;2.27;;;;;;;;;;6179367;23;20834;-86
2022/02/24 00:42:13;;;;;;;5.43;2.60;;;;;;;;;;6160854;23;20516;-87
2022/02/24 00:45:17;;;;;;;5.77;2.27;;;;;;;;;;6185769;23;20587;-87
2022/02/24 00:48:23;;;;;;;4.30;2.47;;;;;;;;;;6178112;23;20505;-89
2022/02/24 00:51:29;;;;;;;5.67;2.70;;;;;;;;;;6177998;23;20517;-87
2022/02/24 00:54:34;;;;;;;5.07;2.40;;;;;;;;;;6189586;23;20580;-88
2022/02/24 00:57:43;;;;;;;7.73;2.60;;;;;;;;;;6168667;23;20603;-85
2022/02/24 01:00:50;;;;;;;6.67;2.73;;;;;;;;;;6196509;23;20824;-87
2022/02/24 01:04:27;;;;;;;5.90;2.97;;;;;;;;;;6208307;23;20580;-87
2022/02/24 01:07:34;;;;;;;5.07;2.40;;;;;;;;;;6162310;23;20509;-89
2022/02/24 01:10:42;;;;;;;8.73;2.87;;;;;;;;;;6195263;23;20521;-87
2022/02/24 01:13:48;;;;;;;8.97;2.80;;;;;;;;;;6191884;23;20579;-87
2022/02/24 01:16:54;;;;;;;7.27;2.80;;;;;;;;;;6180063;23;21100;-86
2022/02/24 01:20:00;;;;;;;5.20;2.37;;;;;;;;;;6180015;23;20509;-88
2022/02/24 01:23:05;;;;;;;5.13;2.50;;;;;;;;;;6196567;23;20516;-88
2022/02/24 01:26:11;;;;;;;6.57;2.80;;;;;;;;;;6179755;23;20516;-86
2022/02/24 01:29:15;;;;;;;4.50;2.67;;;;;;;;;;6187203;23;20560;-86
2022/02/24 01:32:19;;;;;;;7.70;2.60;;;;;;;;;;6214350;23;20520;-87
2022/02/24 01:35:25;;;;;;;4.53;2.40;;;;;;;;;;6152636;23;20575;-88
2022/02/24 01:38:31;;;;;;;4.70;3.00;;;;;;;;;;6136656;23;20564;-87
2022/02/24 01:42:04;;;;;;;6.00;2.70;;;;;;;;;;6197505;23;20505;-88
2022/02/24 01:45:43;;;;;;;8.33;2.77;;;;;;;;;;6211145;23;20592;-86
2022/02/24 01:49:17;;;;;;;4.90;3.03;;;;;;;;;;6193382;23;20575;-87
2022/02/24 01:52:46;;;;;;;7.73;2.83;;;;;;;;;;6162853;23;20521;-87
2022/02/24 01:56:05;;;;;;;6.63;2.90;;;;;;;;;;6187425;23;20556;-85
2022/02/24 01:59:15;;;;;;;7.97;2.53;;;;;;;;;;6196874;23;20509;-87
2022/02/24 02:02:42;;;;;;;7.20;2.40;;;;;;;;;;6162612;23;20504;-87
2022/02/24 02:06:12;;;;;;;5.97;2.20;;;;;;;;;;6196965;23;20512;-85
2022/02/24 02:09:18;;;;;;;5.77;2.60;;;;;;;;;;6179497;23;20501;-86
2022/02/24 02:12:24;;;;;;;4.67;2.53;;;;;;;;;;6145869;23;20512;-88
2022/02/24 02:15:29;;;;;;;8.07;3.17;;;;;;;;;;6146834;23;20521;-87
2022/02/24 02:18:34;;;;;;;6.77;2.50;;;;;;;;;;6186231;23;20560;-85
2022/02/24 02:21:38;;;;;;;4.60;2.77;;;;;;;;;;6169049;23;20552;-87
2022/02/24 02:25:08;;;;;;;6.23;2.83;;;;;;;;;;6172736;23;20887;-85
2022/02/24 02:28:34;;;;;;;8.20;2.93;;;;;;;;;;6187013;23;20521;-85
2022/02/24 02:31:43;;;;;;;5.80;3.00;;;;;;;;;;6197905;23;20508;-85
2022/02/24 02:34:49;;;;;;;11.60;2.83;;;;;;;;;;6190286;23;20580;-85
2022/02/24 02:37:57;;;;;;;5.30;2.60;;;;;;;;;;6198330;23;20559;-85
2022/02/24 02:41:06;;;;;;;4.50;2.70;;;;;;;;;;6181099;23;20505;-85
2022/02/24 02:44:15;;;;;;;11.13;2.67;;;;;;;;;;6192505;23;20591;-85
2022/02/24 02:47:20;;;;;;;5.47;2.57;;;;;;;;;;6163829;23;20525;-85
2022/02/24 02:50:24;;;;;;;7.67;2.90;;;;;;;;;;6163540;23;20504;-85
2022/02/24 02:53:28;;;;;;;4.93;2.67;;;;;;;;;;6161729;23;21131;-85
2022/02/24 02:56:32;;;;;;;6.20;2.87;;;;;;;;;;6163301;23;20564;-85
2022/02/24 02:59:36;;;;;;;10.17;2.97;;;;;;;;;;6146468;23;20517;-85
2022/02/24 03:02:41;;;;;;;5.07;2.63;;;;;;;;;;6146618;23;20513;-85
2022/02/24 03:05:46;;;;;;;4.27;2.67;;;;;;;;;;6162929;23;21029;-85
2022/02/24 03:08:50;;;;;;;4.43;2.73;;;;;;;;;;6163209;23;20509;-85
2022/02/24 03:11:54;;;;;;;5.53;2.97;;;;;;;;;;6146333;23;20512;-85
2022/02/24 03:14:58;;;;;;;4.63;2.60;;;;;;;;;;6137977;23;20882;-85
2022/02/24 03:18:03;;;;;;;5.37;2.70;;;;;;;;;;6146007;23;20560;-85
2022/02/24 03:21:07;;;;;;;6.97;3.27;;;;;;;;;;6164546;23;20509;-85
2022/02/24 03:24:11;;;;;;;4.27;2.30;;;;;;;;;;6169639;23;20580;-85
2022/02/24 03:27:15;;;;;;;5.23;2.50;;;;;;;;;;6169994;23;20505;-85
2022/02/24 03:30:21;;;;;;;6.23;2.70;;;;;;;;;;6168187;23;20812;-85
2022/02/24 03:33:25;;;;;;;3.43;2.43;;;;;;;;;;6158791;23;20584;-85
2022/02/24 03:36:29;;;;;;;6.23;2.80;;;;;;;;;;6157527;23;20556;-86
2022/02/24 03:39:34;;;;;;;5.27;2.80;;;;;;;;;;6151886;23;20509;-85
2022/02/24 03:42:39;;;;;;;5.73;2.50;;;;;;;;;;6151270;23;20505;-85
2022/02/24 03:45:44;;;;;;;6.00;2.93;;;;;;;;;;6172164;23;20568;-85
2022/02/24 03:48:49;;;;;;;10.03;3.07;;;;;;;;;;6184628;23;20501;-85
2022/02/24 03:51:53;;;;;;;4.07;3.00;;;;;;;;;;6167307;23;21039;-85
2022/02/24 03:54:58;;;;;;;6.33;2.90;;;;;;;;;;6175882;23;20579;-85
2022/02/24 03:58:02;;;;;;;5.93;2.90;;;;;;;;;;6201129;23;20577;-85
2022/02/24 04:01:07;;;;;;;3.77;2.47;;;;;;;;;;6164980;23;21044;-88
2022/02/24 04:04:12;;;;;;;4.87;2.50;;;;;;;;;;6190473;23;20580;-89
2022/02/24 04:07:17;;;;;;;9.97;3.40;;;;;;;;;;6213089;23;20505;-89
2022/02/24 04:10:21;;;;;;;6.47;3.43;;;;;;;;;;6185621;23;20867;-88
2022/02/24 04:13:25;;;;;;;6.53;3.40;;;;;;;;;;6176125;23;20879;-88
2022/02/24 04:16:30;;;;;;;6.77;3.17;;;;;;;;;;6178320;23;21033;-88
2022/02/24 04:19:34;;;;;;;7.97;3.60;;;;;;;;;;6195941;23;20497;-88
2022/02/24 04:22:38;;;;;;;7.07;3.50;;;;;;;;;;6212308;23;20827;-88
2022/02/24 04:25:45;;;;;;;4.50;3.43;;;;;;;;;;6161478;23;20508;-88
2022/02/24 04:29:01;;;;;;;6.77;3.67;;;;;;;;;;6195061;23;20520;-88
2022/02/24 04:32:08;;;;;;;5.43;3.10;;;;;;;;;;6178135;23;20516;-88
2022/02/24 04:35:22;;;;;;;6.93;3.50;;;;;;;;;;6185341;23;20588;-88
2022/02/24 04:38:33;;;;;;;10.77;3.70;;;;;;;;;;6195743;23;20557;-88
2022/02/24 04:41:42;;;;;;;8.77;3.77;;;;;;;;;;6185425;23;20883;-88
2022/02/24 04:44:47;;;;;;;8.40;3.60;;;;;;;;;;6188158;23;20607;-85
2022/02/24 04:47:53;;;;;;;8.63;3.97;;;;;;;;;;6197762;23;20501;-85
2022/02/24 04:50:58;;;;;;;11.60;3.77;;;;;;;;;;6197576;23;20508;-85
2022/02/24 04:54:02;;;;;;;5.30;3.50;;;;;;;;;;6159406;23;20590;-85
2022/02/24 04:57:09;;;;;;;6.90;3.53;;;;;;;;;;6180414;23;20508;-85
2022/02/24 05:00:15;;;;;;;6.57;3.77;;;;;;;;;;6197254;23;20513;-85
2022/02/24 05:03:20;;;;;;;5.80;4.00;;;;;;;;;;6187605;23;20560;-85
2022/02/24 05:06:34;;;;;;;6.70;4.07;;;;;;;;;;6187420;23;20556;-85
2022/02/24 05:09:39;;;;;;;8.07;4.10;;;;;;;;;;6180960;23;20497;-85
2022/02/24 05:12:44;;;;;;;9.80;4.03;;;;;;;;;;6163725;23;20508;-85
2022/02/24 05:15:52;;;;;;;6.30;4.40;;;;;;;;;;6198225;23;20509;-85
2022/02/24 05:18:57;;;;;;;9.43;4.07;;;;;;;;;;6197098;23;20862;-85
2022/02/24 05:22:04;;;;;;;6.67;4.37;;;;;;;;;;6197030;23;21033;-85
2022/02/24 05:25:10;;;;;;;8.67;5.07;;;;;;;;;;6169847;23;20584;-85
2022/02/24 05:28:15;;;;;;;7.97;5.03;;;;;;;;;;6187729;23;20552;-85
2022/02/24 05:31:21;;;;;;;7.87;5.20;;;;;;;;;;6170534;23;20560;-85
2022/02/24 05:34:30;;;;;;;8.87;4.97;;;;;;;;;;6166890;23;21160;-85
2022/02/24 05:37:35;;;;;;;8.73;5.43;;;;;;;;;;6197220;23;20863;-85
2022/02/24 05:40:55;;;;;;;7.90;5.30;;;;;;;;;;6197062;23;20517;-85
2022/02/24 05:44:06;;;;;;;9.80;6.17;;;;;;;;;;6192203;23;20591;-85
2022/02/24 05:47:18;;;;;;;11.43;6.13;;;;;;;;;;6148141;23;20504;-85
2022/02/24 05:50:22;;;;;;;9.07;6.47;;;;;;;;;;6169459;23;20572;-85
2022/02/24 05:53:27;;;;;;;12.33;6.23;;;;;;;;;;6143419;23;20588;-85
2022/02/24 05:56:31;;;;;;;12.77;6.10;;;;;;;;;;6162312;23;21063;-85
2022/02/24 05:59:43;;;;;;;11.33;5.77;;;;;;;;;;6178627;23;20507;-85
2022/02/24 06:02:48;;;;;;;11.10;6.23;;;;;;;;;;6137347;23;20566;-85
2022/02/24 06:05:56;;;;;;;9.40;5.80;;;;;;;;;;6153480;23;20568;-85
2022/02/24 06:09:07;;;;;;;12.97;6.30;;;;;;;;;;6166057;23;20520;-85
2022/02/24 06:12:32;;;;;;;9.47;6.47;;;;;;;;;;6199769;23;20517;-85
2022/02/24 06:15:36;;;;;;;14.63;6.67;;;;;;;;;;6147729;23;20508;-86
2022/02/24 06:18:41;;;;;;;10.97;6.20;;;;;;;;;;6147368;23;20582;-85
2022/02/24 06:22:24;;;;;;;9.77;6.03;;;;;;;;;;6163595;23;20513;-85
2022/02/24 06:25:41;;;;;;;11.63;6.50;;;;;;;;;;6146388;23;20807;-85
2022/02/24 06:28:54;;;;;;;10.37;6.80;;;;;;;;;;6163548;23;20504;-85
2022/02/24 06:32:07;;;;;;;12.43;7.23;;;;;;;;;;6148680;23;20844;-85
2022/02/24 06:36:12;;;;;;;10.30;7.20;;;;;;;;;;6165334;23;21162;-85
2022/02/24 06:39:41;;;;;;;10.13;6.40;;;;;;;;;;6180399;23;20563;-85
2022/02/24 06:42:52;;;;;;;8.50;6.03;;;;;;;;;;6163794;23;20513;-85
2022/02/24 06:46:18;;;;;;;9.90;6.33;;;;;;;;;;6167485;23;20502;-85
2022/02/24 06:49:22;;;;;;;8.43;6.17;;;;;;;;;;6133044;23;20506;-85
2022/02/24 06:52:33;;;;;;;11.70;6.57;;;;;;;;;;6133340;23;20518;-85
2022/02/24 06:55:41;;;;;;;10.00;6.13;;;;;;;;;;6118154;23;20522;-86
2022/02/24 06:58:45;;;;;;;13.90;7.87;;;;;;;;;;6122122;23;20593;-86
2022/02/24 07:01:49;;;;;;;13.00;8.97;;;;;;;;;;6122305;23;21113;-86
2022/02/24 07:05:25;;;;;;;11.90;6.20;;;;;;;;;;6142922;23;20577;-85
2022/02/24 07:08:31;;;;;;;6.83;4.73;;;;;;;;;;6132769;23;20494;-85
2022/02/24 07:11:37;;;;;;;5.57;4.70;;;;;;;;;;6132010;23;20513;-86
2022/02/24 07:14:42;;;;;;;7.63;5.33;;;;;;;;;;6125534;23;20576;-86
2022/02/24 07:17:54;;;;;;;8.73;5.47;;;;;;;;;;6149302;23;20506;-86
2022/02/24 07:20:59;;;;;;;8.57;5.70;;;;;;;;;;6122325;23;20561;-86
2022/02/24 07:24:31;;;;;;;8.43;5.57;;;;;;;;;;6131578;23;20589;-86
2022/02/24 07:27:37;;;;;;;11.97;6.27;;;;;;;;;;6132360;23;21038;-86
2022/02/24 07:30:48;;;;;;;9.03;6.87;;;;;;;;;;6148806;23;20510;-86
2022/02/24 07:34:14;;;;;;;16.33;7.87;;;;;;;;;;6128120;23;20580;-86
2022/02/24 07:37:18;;;;;;;14.37;7.77;;;;;;;;;;6148454;23;20502;-86
2022/02/24 07:40:22;;;;;;;8.80;6.80;;;;;;;;;;6132130;23;20498;-86
2022/02/24 07:43:26;;;;;;;10.20;5.90;;;;;;;;;;6129919;23;20589;-86
2022/02/24 07:46:32;;;;;;;6.37;4.60;;;;;;;;;;6148553;23;21018;-86
2022/02/24 07:49:36;;;;;;;9.27;5.67;;;;;;;;;;6114817;23;20517;-86
2022/02/24 07:52:45;;;;;;;7.60;5.37;;;;;;;;;;6165628;23;20513;-86
2022/02/24 07:55:50;;;;;;;9.23;5.20;;;;;;;;;;6121932;23;20856;-86
2022/02/24 07:58:55;;;;;;;6.67;4.80;;;;;;;;;;6131534;23;20553;-86
2022/02/24 08:05:43;;;;;;;13.90;8.37;;;;;;;;;;6148104;23;20521;-86
2022/02/24 08:08:58;;;;;;;17.77;8.47;;;;;;;;;;6120639;23;20506;-86
2022/02/24 08:15:32;;;;;;;11.13;6.47;;;;;;;;;;6131137;23;20154;-86
2022/02/24 08:18:37;;;;;;;10.03;6.10;;;;;;;;;;6148241;23;20186;-86
2022/02/24 08:21:41;;;;;;;11.77;7.30;;;;;;;;;;6148432;23;20157;-86
2022/02/24 08:24:47;;;;;;;10.37;6.50;;;;;;;;;;6141130;23;20194;-85
2022/02/24 08:27:52;;;;;;;11.70;7.03;;;;;;;;;;6105618;23;20177;-86
2022/02/24 08:31:01;;;;;;;10.13;7.30;;;;;;;;;;6114829;23;20181;-86
2022/02/24 08:34:15;;;;;;;10.40;6.30;;;;;;;;;;6127032;23;20193;-86
2022/02/24 08:37:20;;;;;;;11.47;6.60;;;;;;;;;;6122089;23;20173;-86
2022/02/24 08:40:29;;;;;;;7.80;5.80;;;;;;;;;;6098556;23;20158;-87
2022/02/24 08:43:38;;;;;;;10.13;6.33;;;;;;;;;;6147382;23;20197;-86
2022/02/24 08:46:43;;;;;;;14.23;6.63;;;;;;;;;;6160981;23;20156;-86
2022/02/24 08:49:51;;;;;;;8.67;6.40;;;;;;;;;;6160361;23;20590;-86
2022/02/24 08:52:58;;;;;;;8.30;5.00;;;;;;;;;;6161618;23;20161;-86
2022/02/24 08:56:29;;;;;;;8.70;5.23;;;;;;;;;;6161094;23;20157;-85
2022/02/24 08:59:36;;;;;;;10.23;5.43;;;;;;;;;;6178001;23;20499;-86
2022/02/24 09:02:46;;;;;;;11.33;8.53;;;;;;;;;;6144045;23;20157;-86
2022/02/24 09:05:50;;;;;;;6.70;5.40;;;;;;;;;;6134195;23;20165;-86
2022/02/24 09:08:57;;;;;;;6.50;5.10;;;;;;;;;;6160714;23;20153;-86
2022/02/24 09:12:02;;;;;;;10.13;5.90;;;;;;;;;;6160470;23;20161;-86
2022/02/24 09:15:32;;;;;;;6.53;4.17;;;;;;;;;;6135342;23;20499;-86
2022/02/24 09:18:39;;;;;;;3.90;3.17;;;;;;;;;;6177456;23;20181;-86
2022/02/24 09:21:55;;;;;;;4.13;3.10;;;;;;;;;;6179189;23;20161;-86
2022/02/24 09:24:59;;;;;;;5.10;3.60;;;;;;;;;;6152464;23;20189;-86
2022/02/24 09:28:03;;;;;;;4.13;2.83;;;;;;;;;;6143923;23;20607;-87
2022/02/24 09:31:08;;;;;;;3.80;2.90;;;;;;;;;;6143533;23;20599;-86
2022/02/24 09:34:12;;;;;;;7.03;2.90;;;;;;;;;;6155859;23;20189;-86
2022/02/24 09:37:41;;;;;;;2.90;2.30;;;;;;;;;;6162488;23;20452;-86
2022/02/24 09:40:49;;;;;;;5.97;2.30;;;;;;;;;;6162332;23;20149;-87
2022/02/24 09:43:54;;;;;;;4.20;2.40;;;;;;;;;;6158421;23;20201;-87
2022/02/24 09:47:01;;;;;;;4.83;2.20;;;;;;;;;;6145597;23;20157;-86
2022/02/24 09:50:08;;;;;;;1.90;1.60;;;;;;;;;;6145167;23;20146;-86
2022/02/24 09:53:12;;;;;;;2.00;1.77;;;;;;;;;;6161826;23;20157;-87
2022/02/24 09:56:18;;;;;;;1.80;1.30;;;;;;;;;;6161986;23;20157;-86
2022/02/24 09:59:22;;;;;;;2.50;1.70;;;;;;;;;;6162011;23;20185;-86
2022/02/24 10:02:29;;;;;;;6.37;1.37;;;;;;;;;;6161997;23;20157;-86
2022/02/24 10:05:46;;;;;;;3.83;1.60;;;;;;;;;;6163616;23;20161;-87
2022/02/24 10:08:50;;;;;;;2.57;1.57;;;;;;;;;;6145348;23;20153;-87
2022/02/24 10:12:08;;;;;;;3.00;1.60;;;;;;;;;;6162449;23;20153;-89
2022/02/24 10:15:13;;;;;;;3.33;1.90;;;;;;;;;;6136333;23;20661;-89
2022/02/24 10:18:19;;;;;;;4.50;3.90;;;;;;;;;;6145271;23;20161;-89
2022/02/24 10:21:26;;;;;;;6.03;3.00;;;;;;;;;;6162219;23;20149;-89
2022/02/24 10:24:30;;;;;;;3.10;1.97;;;;;;;;;;6135875;23;20653;-89
2022/02/24 10:27:38;;;;;;;3.70;1.67;;;;;;;;;;6135665;23;20164;-89
2022/02/24 10:30:51;;;;;;;2.90;2.20;;;;;;;;;;6179169;23;20149;-89
2022/02/24 10:34:38;;;;;;;2.70;1.77;;;;;;;;;;6157870;23;20507;-90
2022/02/24 10:38:16;;;;;;;2.57;1.70;;;;;;;;;;6154031;23;20169;-90
2022/02/24 10:43:09;;;;;;;3.37;1.50;;;;;;;;;;6190593;23;20169;-90
2022/02/24 10:46:23;;;;;;;3.27;1.80;;;;;;;;;;6203041;23;20207;-90
2022/02/24 10:49:36;;;;;;;1.63;1.40;;;;;;;;;;6191470;23;20152;-90
2022/02/24 10:52:40;;;;;;;2.27;1.57;;;;;;;;;;6191453;23;20153;-90
2022/02/24 10:55:55;;;;;;;5.10;1.83;;;;;;;;;;6198978;23;20192;-90
2022/02/24 10:58:59;;;;;;;1.50;1.40;;;;;;;;;;6213074;23;20185;-90
2022/02/24 11:02:04;;;;;;;2.10;1.47;;;;;;;;;;6162559;23;20153;-90
2022/02/24 11:05:08;;;;;;;2.17;1.70;;;;;;;;;;6151466;23;20189;-89
2022/02/24 11:08:13;;;;;;;2.20;1.50;;;;;;;;;;6152665;23;20169;-90
2022/02/24 11:11:23;;;;;;;2.93;1.70;;;;;;;;;;6179084;23;20153;-90
2022/02/24 11:14:27;;;;;;;1.63;1.50;;;;;;;;;;6194580;23;20196;-90
2022/02/24 11:17:32;;;;;;;4.13;1.50;;;;;;;;;;6185697;23;20487;-90
2022/02/24 11:20:36;;;;;;;1.60;1.40;;;;;;;;;;6152087;23;20192;-90
2022/02/24 11:23:43;;;;;;;1.83;1.10;;;;;;;;;;6178434;23;20157;-90
2022/02/24 11:27:12;;;;;;;3.43;1.47;;;;;;;;;;6178735;23;20153;-90
2022/02/24 11:30:29;;;;;;;1.97;1.30;;;;;;;;;;6178878;23;20153;-90
2022/02/24 11:33:34;;;;;;;3.83;1.40;;;;;;;;;;6178744;23;20157;-89
2022/02/24 11:36:43;;;;;;;2.30;1.30;;;;;;;;;;6161571;23;20153;-90
2022/02/24 11:39:47;;;;;;;2.70;1.40;;;;;;;;;;6168051;23;20511;-90
2022/02/24 11:43:04;;;;;;;2.87;1.60;;;;;;;;;;6161793;23;20153;-90
2022/02/24 11:46:11;;;;;;;1.60;1.07;;;;;;;;;;6153258;23;20201;-89
2022/02/24 11:49:15;;;;;;;1.57;1.10;;;;;;;;;;6178436;23;20157;-89
2022/02/24 11:52:25;;;;;;;4.27;1.40;;;;;;;;;;6178670;23;20156;-90
2022/02/24 11:55:42;;;;;;;3.80;1.03;;;;;;;;;;6172909;23;20188;-90
2022/02/24 11:58:56;;;;;;;3.47;1.27;;;;;;;;;;6178834;23;20161;-90
2022/02/24 12:02:00;;;;;;;2.30;1.30;;;;;;;;;;6161646;23;20161;-89
2022/02/24 12:05:15;;;;;;;1.70;1.07;;;;;;;;;;6151731;23;20189;-89
2022/02/24 12:08:19;;;;;;;2.70;1.30;;;;;;;;;;6178796;23;20153;-90
2022/02/24 12:11:31;;;;;;;3.90;1.70;;;;;;;;;;6178296;23;20605;-89
2022/02/24 12:14:35;;;;;;;3.30;1.33;;;;;;;;;;6193018;23;20192;-90
2022/02/24 12:17:48;;;;;;;1.77;1.20;;;;;;;;;;6177687;23;20157;-89
2022/02/24 12:21:28;;;;;;;2.53;1.50;;;;;;;;;;6178638;23;20181;-89
2022/02/24 12:24:32;;;;;;;6.03;2.57;;;;;;;;;;6211365;23;20192;-90
2022/02/24 12:28:00;;;;;;;1.60;1.27;;;;;;;;;;6168117;23;20176;-90
2022/02/24 12:31:17;;;;;;;2.27;1.00;;;;;;;;;;6195560;23;20153;-90
2022/02/24 12:34:21;;;;;;;3.43;2.67;;;;;;;;;;6159731;23;20157;-90
2022/02/24 12:37:29;;;;;;;3.13;2.07;;;;;;;;;;6161058;23;20156;-90
2022/02/24 12:40:41;;;;;;;4.07;2.70;;;;;;;;;;6151078;23;20192;-90
2022/02/24 12:43:45;;;;;;;3.23;1.87;;;;;;;;;;6178184;23;20157;-90
2022/02/24 12:46:49;;;;;;;2.60;1.40;;;;;;;;;;6177779;23;20153;-90
2022/02/24 12:49:56;;;;;;;3.17;1.20;;;;;;;;;;6178547;23;20606;-90
2022/02/24 12:53:13;;;;;;;2.60;1.50;;;;;;;;;;6177685;23;20152;-90
2022/02/24 12:56:18;;;;;;;1.63;1.33;;;;;;;;;;6186440;23;20189;-88
2022/02/24 12:59:25;;;;;;;2.70;1.87;;;;;;;;;;6160877;23;20157;-88
2022/02/24 13:02:29;;;;;;;2.40;1.10;;;;;;;;;;6185559;23;20173;-89
2022/02/24 13:05:34;;;;;;;2.00;1.53;;;;;;;;;;6172102;23;20495;-88
2022/02/24 13:12:03;;;;;;;18.97;2.20;;;;;;;;;;6196573;23;20149;-86
2022/02/24 13:15:09;;;;;;;6.17;2.67;;;;;;;;;;6158597;23;20200;-85
2022/02/24 13:18:16;;;;;;;2.10;1.30;;;;;;;;;;6179992;23;20153;-87
2022/02/24 13:21:25;;;;;;;4.43;1.30;;;;;;;;;;6197181;23;20491;-87
2022/02/24 13:24:37;;;;;;;3.00;1.30;;;;;;;;;;6161754;23;20657;-88
2022/02/24 13:27:46;;;;;;;2.53;1.80;;;;;;;;;;6162673;23;20153;-87
2022/02/24 13:30:59;;;;;;;2.17;1.10;;;;;;;;;;6169928;23;20161;-88
2022/02/24 13:34:14;;;;;;;5.17;1.30;;;;;;;;;;6152853;23;20173;-88
2022/02/24 13:37:29;;;;;;;3.47;2.40;;;;;;;;;;6170274;23;20483;-88
2022/02/24 13:40:34;;;;;;;4.23;1.70;;;;;;;;;;6179462;23;20185;-88
2022/02/24 13:43:40;;;;;;;2.50;1.43;;;;;;;;;;6152950;23;20630;-87
2022/02/24 13:46:44;;;;;;;1.40;1.10;;;;;;;;;;6179927;23;20157;-88
2022/02/24 13:49:48;;;;;;;1.23;1.10;;;;;;;;;;6162608;23;20148;-87
2022/02/24 13:52:56;;;;;;;2.07;1.10;;;;;;;;;;6179414;23;20157;-88
2022/02/24 13:56:08;;;;;;;1.87;1.17;;;;;;;;;;6186966;23;20491;-87
2022/02/24 13:59:20;;;;;;;1.70;1.10;;;;;;;;;;6179710;23;20157;-88
2022/02/24 14:02:25;;;;;;;2.43;1.20;;;;;;;;;;6196997;23;20464;-88
2022/02/24 14:05:31;;;;;;;2.60;0.83;;;;;;;;;;6174716;23;20185;-90
2022/02/24 14:08:40;;;;;;;1.47;1.10;;;;;;;;;;6170113;23;20630;-87
2022/02/24 14:11:45;;;;;;;2.30;1.20;;;;;;;;;;6180937;23;20149;-88
2022/02/24 14:14:49;;;;;;;1.83;0.90;;;;;;;;;;6170481;23;20193;-87
2022/02/24 14:17:53;;;;;;;7.40;1.27;;;;;;;;;;6170287;23;20169;-87
2022/02/24 14:21:02;;;;;;;1.33;0.90;;;;;;;;;;6162287;23;20185;-87
2022/02/24 14:24:07;;;;;;;1.60;0.90;;;;;;;;;;6179640;23;20153;-88
2022/02/24 14:27:11;;;;;;;2.63;1.10;;;;;;;;;;6179589;23;20252;-88
2022/02/24 14:30:16;;;;;;;2.67;1.00;;;;;;;;;;6180213;23;20153;-85
2022/02/24 14:33:20;;;;;;;2.17;1.03;;;;;;;;;;6162621;23;20157;-87
2022/02/24 14:36:24;;;;;;;6.03;0.83;;;;;;;;;;6170567;23;20193;-87
2022/02/24 14:39:29;;;;;;;2.20;0.90;;;;;;;;;;6162338;23;20601;-87
2022/02/24 14:42:34;;;;;;;3.07;1.07;;;;;;;;;;6179544;23;20157;-90
2022/02/24 14:45:38;;;;;;;2.43;0.97;;;;;;;;;;6155797;23;20200;-89
2022/02/24 14:48:42;;;;;;;2.37;0.97;;;;;;;;;;6179156;23;20153;-88
2022/02/24 14:51:46;;;;;;;3.63;0.90;;;;;;;;;;6179727;23;20601;-88
2022/02/24 14:54:50;;;;;;;1.93;0.90;;;;;;;;;;6193841;23;20189;-89
2022/02/24 14:57:55;;;;;;;2.50;1.17;;;;;;;;;;6162689;23;20157;-88
2022/02/24 15:00:59;;;;;;;3.33;1.13;;;;;;;;;;6179440;23;20181;-88
2022/02/24 15:04:03;;;;;;;5.70;1.40;;;;;;;;;;6197052;23;20153;-88
2022/02/24 15:07:07;;;;;;;6.23;1.20;;;;;;;;;;6178779;23;20153;-87
2022/02/24 15:10:13;;;;;;;2.90;1.10;;;;;;;;;;6169122;23;20187;-86
2022/02/24 15:13:19;;;;;;;2.83;1.00;;;;;;;;;;6178721;23;20153;-88
2022/02/24 15:16:23;;;;;;;2.20;1.10;;;;;;;;;;6152144;23;20188;-87
2022/02/24 15:19:29;;;;;;;4.47;1.20;;;;;;;;;;6169095;23;20621;-88
2022/02/24 15:22:35;;;;;;;3.67;1.20;;;;;;;;;;6162048;23;20154;-87
2022/02/24 15:25:39;;;;;;;2.53;0.93;;;;;;;;;;6185574;23;20193;-87
2022/02/24 15:28:45;;;;;;;2.00;0.97;;;;;;;;;;6151520;23;20165;-88
2022/02/24 15:31:51;;;;;;;2.50;1.00;;;;;;;;;;6179109;23;20594;-88
2022/02/24 15:34:55;;;;;;;2.70;1.20;;;;;;;;;;6158559;23;20193;-88
2022/02/24 15:37:59;;;;;;;3.13;1.17;;;;;;;;;;6178354;23;20586;-88
2022/02/24 15:41:03;;;;;;;3.37;1.10;;;;;;;;;;6178921;23;20185;-87
2022/02/24 15:44:07;;;;;;;4.57;1.00;;;;;;;;;;6162025;23;20157;-87
2022/02/24 15:47:12;;;;;;;3.73;1.20;;;;;;;;;;6178635;23;20153;-87
2022/02/24 15:50:16;;;;;;;5.57;1.30;;;;;;;;;;6178259;23;20603;-87
2022/02/24 15:53:21;;;;;;;2.93;1.30;;;;;;;;;;6196407;23;20152;-89
2022/02/24 15:56:24;;;;;;;3.57;1.37;;;;;;;;;;6151963;23;20192;-88
2022/02/24 15:59:29;;;;;;;7.40;1.80;;;;;;;;;;6185693;23;20173;-87
2022/02/24 16:02:33;;;;;;;3.93;1.23;;;;;;;;;;6168316;23;20169;-86
2022/02/24 16:05:37;;;;;;;1.83;1.10;;;;;;;;;;6168404;23;20192;-87
2022/02/24 16:08:41;;;;;;;4.10;1.30;;;;;;;;;;6168194;23;20173;-87
2022/02/24 16:11:45;;;;;;;3.60;1.60;;;;;;;;;;6177957;23;20153;-87
2022/02/24 16:14:49;;;;;;;4.63;1.23;;;;;;;;;;6158444;23;20188;-87
2022/02/24 16:17:53;;;;;;;5.67;1.30;;;;;;;;;;6177930;23;20157;-87
2022/02/24 16:20:58;;;;;;;3.47;1.30;;;;;;;;;;6177703;23;20184;-88
2022/02/24 16:24:02;;;;;;;2.40;1.13;;;;;;;;;;6161221;23;20161;-87
2022/02/24 16:27:07;;;;;;;3.50;1.60;;;;;;;;;;6178700;23;20156;-89
2022/02/24 16:30:11;;;;;;;5.87;1.30;;;;;;;;;;6151433;23;20169;-86
2022/02/24 16:33:15;;;;;;;1.73;1.10;;;;;;;;;;6152983;23;20168;-86
2022/02/24 16:36:20;;;;;;;5.40;1.40;;;;;;;;;;6151883;23;20188;-87
2022/02/24 16:39:25;;;;;;;2.77;1.23;;;;;;;;;;6196497;23;20157;-86
2022/02/24 16:42:29;;;;;;;2.57;1.23;;;;;;;;;;6168097;23;20197;-88
2022/02/24 16:45:33;;;;;;;3.90;1.60;;;;;;;;;;6193570;23;20208;-86
2022/02/24 16:48:38;;;;;;;3.53;1.60;;;;;;;;;;6175938;23;20156;-85
2022/02/24 16:51:42;;;;;;;7.17;2.00;;;;;;;;;;6177340;23;20149;-86
2022/02/24 16:54:47;;;;;;;12.00;4.87;;;;;;;;;;6216043;23;20152;-86
2022/02/24 16:57:51;;;;;;;19.00;8.57;;;;;;;;;;6161779;23;20613;-85
2022/02/24 17:00:55;;;;;;;56.60;25.70;;;;;;;;;;6143852;23;20185;-85
2022/02/24 17:03:59;;;;;;;115.43;46.30;;;;;;;;;;6160871;23;20216;-86
2022/02/24 17:07:05;;;;;;;59.23;26.97;;;;;;;;;;6173054;23;20203;-86
2022/02/24 17:10:09;;;;;;;12.13;3.97;;;;;;;;;;6160030;23;20161;-86
2022/02/24 17:13:14;;;;;;;10.00;2.90;;;;;;;;;;6178435;23;20153;-85
2022/02/24 17:16:19;;;;;;;5.57;2.40;;;;;;;;;;6154504;23;20188;-86
2022/02/24 17:19:23;;;;;;;5.37;2.20;;;;;;;;;;6143856;23;20153;-85
2022/02/24 17:22:27;;;;;;;5.43;2.00;;;;;;;;;;6151394;23;20196;-86
2022/02/24 17:25:34;;;;;;;6.20;1.97;;;;;;;;;;6157171;23;20188;-86
2022/02/24 17:28:38;;;;;;;3.40;1.93;;;;;;;;;;6160698;23;20157;-86
2022/02/24 17:31:43;;;;;;;6.13;1.70;;;;;;;;;;6160403;23;20153;-86
2022/02/24 17:34:47;;;;;;;6.17;1.70;;;;;;;;;;6151371;23;20173;-86
2022/02/24 17:37:52;;;;;;;3.87;1.90;;;;;;;;;;6162101;23;20153;-86
2022/02/24 17:40:56;;;;;;;4.23;2.00;;;;;;;;;;6160441;23;20189;-87
2022/02/24 17:44:00;;;;;;;5.40;2.13;;;;;;;;;;6143781;23;20153;-86
2022/02/24 17:47:04;;;;;;;5.50;2.10;;;;;;;;;;6167088;23;20196;-86
2022/02/24 17:50:09;;;;;;;3.00;1.30;;;;;;;;;;6160190;23;20177;-86
2022/02/24 17:53:13;;;;;;;3.70;1.70;;;;;;;;;;6160746;23;20153;-85
2022/02/24 17:56:17;;;;;;;5.10;1.57;;;;;;;;;;6155061;23;20653;-85
2022/02/24 17:59:21;;;;;;;6.50;1.57;;;;;;;;;;6145891;23;20157;-85
2022/02/24 18:02:25;;;;;;;3.47;1.80;;;;;;;;;;6179664;23;20181;-84
2022/02/24 18:05:30;;;;;;;4.87;1.70;;;;;;;;;;6135789;23;20189;-85
2022/02/24 18:08:35;;;;;;;8.97;2.67;;;;;;;;;;6152618;23;20177;-84
2022/02/24 18:11:40;;;;;;;4.80;1.77;;;;;;;;;;6162692;23;20587;-84
2022/02/24 18:14:44;;;;;;;6.53;2.60;;;;;;;;;;6135929;23;20177;-85
2022/02/24 18:17:48;;;;;;;7.27;2.33;;;;;;;;;;6152454;23;20172;-88
2022/02/24 18:20:52;;;;;;;7.87;3.27;;;;;;;;;;6178313;23;20153;-86
2022/02/24 18:23:57;;;;;;;6.07;1.60;;;;;;;;;;6161229;23;20157;-84
2022/02/24 18:27:01;;;;;;;7.73;2.43;;;;;;;;;;6152387;23;20193;-85
2022/02/24 18:30:07;;;;;;;4.80;2.27;;;;;;;;;;6163964;23;20610;-86
2022/02/24 18:33:11;;;;;;;2.97;1.93;;;;;;;;;;6154232;23;20169;-85
2022/02/24 18:36:17;;;;;;;6.97;2.17;;;;;;;;;;6139214;23;20189;-85
2022/02/24 18:39:22;;;;;;;5.67;1.90;;;;;;;;;;6152160;23;20617;-85
2022/02/24 18:42:26;;;;;;;4.07;1.80;;;;;;;;;;6152815;23;20192;-86
2022/02/24 18:45:30;;;;;;;7.60;2.10;;;;;;;;;;6158805;23;20196;-85
2022/02/24 18:48:34;;;;;;;3.73;2.03;;;;;;;;;;6161782;23;20156;-86
2022/02/24 18:51:38;;;;;;;5.73;2.20;;;;;;;;;;6162366;23;20586;-86
2022/02/24 18:54:42;;;;;;;5.00;2.20;;;;;;;;;;6145455;23;20153;-85
2022/02/24 18:57:47;;;;;;;9.33;2.33;;;;;;;;;;6144964;23;20152;-86